createdAt,value
2019-03-30T00:01:22.360Z,5.02
2019-03-30T00:03:53.554Z,5.02
2019-03-30T00:06:24.781Z,5.07
2019-03-30T00:08:56.056Z,5.00
2019-03-30T00:11:27.224Z,4.95
2019-03-30T00:13:58.650Z,4.75
2019-03-30T00:16:29.989Z,4.53
2019-03-30T00:19:01.331Z,4.52
2019-03-30T00:21:32.624Z,4.72
2019-03-30T00:24:03.814Z,4.95
2019-03-30T00:26:35.101Z,4.79
2019-03-30T00:29:06.335Z,4.78
2019-03-30T00:31:37.522Z,4.72
2019-03-30T00:34:08.773Z,4.67
2019-03-30T00:36:39.975Z,4.57
2019-03-30T00:39:11.571Z,4.62
2019-03-30T00:41:42.871Z,4.69
2019-03-30T00:44:14.118Z,4.61
2019-03-30T00:46:45.342Z,4.64
2019-03-30T00:49:16.521Z,4.66
2019-03-30T00:51:47.768Z,4.65
2019-03-30T00:54:19.059Z,4.64
2019-03-30T00:56:50.378Z,4.56
2019-03-30T00:59:21.635Z,4.48
2019-03-30T01:01:52.908Z,4.38
2019-03-30T01:04:24.056Z,4.36
2019-03-30T01:06:55.285Z,4.34
2019-03-30T01:09:26.429Z,4.04
2019-03-30T01:11:57.623Z,4.07
2019-03-30T01:14:28.836Z,4.12
2019-03-30T01:17:00.078Z,4.18
2019-03-30T01:19:31.293Z,4.12
2019-03-30T01:22:03.913Z,4.13
2019-03-30T01:24:35.079Z,4.16
2019-03-30T01:27:06.371Z,4.12
2019-03-30T01:29:37.653Z,4.08
2019-03-30T01:32:08.958Z,3.87
2019-03-30T01:34:40.208Z,3.67
2019-03-30T01:37:11.372Z,3.30
2019-03-30T01:39:42.498Z,3.26
2019-03-30T01:42:13.714Z,3.15
2019-03-30T01:44:44.956Z,3.13
2019-03-30T01:47:16.186Z,3.33
2019-03-30T01:49:47.458Z,3.51
2019-03-30T01:52:18.721Z,3.66
2019-03-30T01:54:49.955Z,3.75
2019-03-30T01:57:21.172Z,3.72
2019-03-30T01:59:52.518Z,3.66
2019-03-30T02:02:23.815Z,3.49
2019-03-30T02:04:54.987Z,3.51
2019-03-30T02:07:26.224Z,3.44
2019-03-30T02:09:57.403Z,3.01
2019-03-30T02:12:28.616Z,2.94
2019-03-30T02:14:59.904Z,3.05
2019-03-30T02:17:31.110Z,3.18
2019-03-30T02:20:02.309Z,3.11
2019-03-30T02:22:33.644Z,2.86
2019-03-30T02:25:05.076Z,2.67
2019-03-30T02:27:36.299Z,2.83
2019-03-30T02:30:08.695Z,3.08
2019-03-30T02:32:39.904Z,3.28
2019-03-30T02:35:11.248Z,3.42
2019-03-30T02:37:42.415Z,3.53
2019-03-30T02:40:13.681Z,3.49
2019-03-30T02:42:44.908Z,3.24
2019-03-30T02:45:16.101Z,3.34
2019-03-30T02:47:47.322Z,3.43
2019-03-30T02:50:18.576Z,3.54
2019-03-30T02:52:49.800Z,3.61
2019-03-30T02:55:21.143Z,3.62
2019-03-30T02:57:52.396Z,3.60
2019-03-30T03:00:23.625Z,3.62
2019-03-30T03:02:54.847Z,3.61
2019-03-30T03:05:26.176Z,3.62
2019-03-30T03:07:57.424Z,3.56
2019-03-30T03:10:28.760Z,3.53
2019-03-30T03:13:00.039Z,3.21
2019-03-30T03:15:31.255Z,3.16
2019-03-30T03:18:02.547Z,2.90
2019-03-30T03:20:33.849Z,2.82
2019-03-30T03:23:05.088Z,2.89
2019-03-30T03:25:36.737Z,3.02
2019-03-30T03:28:07.952Z,3.16
2019-03-30T03:30:39.242Z,3.23
2019-03-30T03:33:11.038Z,3.30
2019-03-30T03:35:42.296Z,3.19
2019-03-30T03:38:13.506Z,3.19
2019-03-30T03:40:44.703Z,3.17
2019-03-30T03:43:15.921Z,3.03
2019-03-30T03:45:47.348Z,2.78
2019-03-30T03:48:18.648Z,2.56
2019-03-30T03:50:59.782Z,2.31
2019-03-30T03:53:31.356Z,2.16
2019-03-30T03:56:03.639Z,2.23
2019-03-30T03:58:37.238Z,2.36
2019-03-30T04:01:08.551Z,2.43
2019-03-30T04:03:41.033Z,2.47
2019-03-30T04:06:12.675Z,2.48
2019-03-30T04:08:47.353Z,2.41
2019-03-30T04:11:19.909Z,2.30
2019-03-30T04:13:54.288Z,2.37
2019-03-30T04:16:25.520Z,2.26
2019-03-30T04:18:56.776Z,2.23
2019-03-30T04:21:42.767Z,2.17
2019-03-30T04:24:00.989Z,2.18
2019-03-30T04:26:32.295Z,2.17
2019-03-30T04:29:03.504Z,2.12
2019-03-30T04:31:34.809Z,2.25
2019-03-30T04:34:06.063Z,2.37
2019-03-30T04:36:37.222Z,2.50
2019-03-30T04:39:08.766Z,2.59
2019-03-30T04:41:40.030Z,2.64
2019-03-30T04:44:11.276Z,2.57
2019-03-30T04:46:42.519Z,2.57
2019-03-30T04:49:13.736Z,2.60
2019-03-30T04:51:56.989Z,2.64
2019-03-30T04:54:18.013Z,2.57
2019-03-30T04:56:49.201Z,2.43
2019-03-30T04:59:20.468Z,2.37
2019-03-30T05:01:51.738Z,2.37
2019-03-30T05:04:23.014Z,2.28
2019-03-30T05:06:54.231Z,2.12
2019-03-30T05:09:25.494Z,2.15
2019-03-30T05:11:56.716Z,2.20
2019-03-30T05:14:28.068Z,2.19
2019-03-30T05:16:59.270Z,2.18
2019-03-30T05:19:30.622Z,2.04
2019-03-30T05:22:11.989Z,2.08
2019-03-30T05:24:35.025Z,2.16
2019-03-30T05:27:06.117Z,2.23
2019-03-30T05:29:37.350Z,2.36
2019-03-30T05:32:08.663Z,2.47
2019-03-30T05:34:39.985Z,2.46
2019-03-30T05:37:11.318Z,2.43
2019-03-30T05:39:42.537Z,2.56
2019-03-30T05:42:13.655Z,2.68
2019-03-30T05:44:44.928Z,2.84
2019-03-30T05:47:16.192Z,2.93
2019-03-30T05:49:47.428Z,2.93
2019-03-30T05:52:26.472Z,2.97
2019-03-30T05:54:51.652Z,2.89
2019-03-30T05:57:22.872Z,2.96
2019-03-30T05:59:55.820Z,3.09
2019-03-30T06:02:27.093Z,3.19
2019-03-30T06:04:58.845Z,3.29
2019-03-30T06:07:30.295Z,3.47
2019-03-30T06:10:01.504Z,3.67
2019-03-30T06:12:32.714Z,3.84
2019-03-30T06:15:04.356Z,3.96
2019-03-30T06:17:35.544Z,4.08
2019-03-30T06:20:06.923Z,4.19
2019-03-30T06:22:40.516Z,4.24
2019-03-30T06:25:11.250Z,4.30
2019-03-30T06:27:42.587Z,4.38
2019-03-30T06:30:38.786Z,4.54
2019-03-30T06:33:09.996Z,4.61
2019-03-30T06:35:41.308Z,4.75
2019-03-30T06:38:12.561Z,4.94
2019-03-30T06:40:43.662Z,5.12
2019-03-30T06:43:14.902Z,5.29
2019-03-30T06:45:46.078Z,5.50
2019-03-30T06:48:17.189Z,5.72
2019-03-30T06:50:48.475Z,5.92
2019-03-30T06:53:19.709Z,6.14
2019-03-30T06:55:50.975Z,6.47
2019-03-30T06:58:22.201Z,6.69
2019-03-30T07:00:54.476Z,6.83
2019-03-30T07:03:26.030Z,7.02
2019-03-30T07:05:58.202Z,7.27
2019-03-30T07:08:31.317Z,7.47
2019-03-30T07:11:04.663Z,7.89
2019-03-30T07:13:38.610Z,7.93
2019-03-30T07:16:10.190Z,8.06
2019-03-30T07:18:43.910Z,8.15
2019-03-30T07:21:15.220Z,8.48
2019-03-30T07:23:46.544Z,8.93
2019-03-30T07:26:17.828Z,9.18
2019-03-30T07:28:49.028Z,9.66
2019-03-30T07:31:20.286Z,9.90
2019-03-30T07:33:51.498Z,10.06
2019-03-30T07:36:22.777Z,10.22
2019-03-30T07:38:54.191Z,10.51
2019-03-30T07:41:25.511Z,10.86
2019-03-30T07:43:56.744Z,11.45
2019-03-30T07:46:28.051Z,11.93
2019-03-30T07:48:59.323Z,12.40
2019-03-30T07:51:33.401Z,12.94
2019-03-30T07:54:03.765Z,13.03
2019-03-30T07:56:34.972Z,13.32
2019-03-30T07:59:06.213Z,13.61
2019-03-30T08:01:37.499Z,13.94
2019-03-30T08:04:08.860Z,14.29
2019-03-30T08:06:40.124Z,14.53
2019-03-30T08:09:11.383Z,14.67
2019-03-30T08:11:42.684Z,14.94
2019-03-30T08:14:13.951Z,15.51
2019-03-30T08:16:45.209Z,15.70
2019-03-30T08:19:16.514Z,16.13
2019-03-30T08:21:47.942Z,16.57
2019-03-30T08:24:19.196Z,16.73
2019-03-30T08:26:50.597Z,17.12
2019-03-30T08:29:21.837Z,17.50
2019-03-30T08:31:53.088Z,17.82
2019-03-30T08:34:24.322Z,17.89
2019-03-30T08:36:59.050Z,18.15
2019-03-30T08:39:28.682Z,17.91
2019-03-30T08:42:00.058Z,17.80
2019-03-30T08:44:31.382Z,17.97
2019-03-30T08:47:02.601Z,18.40
2019-03-30T08:49:33.851Z,18.32
2019-03-30T08:52:05.160Z,18.58
2019-03-30T08:54:36.498Z,18.26
2019-03-30T08:57:07.847Z,17.70
2019-03-30T08:59:39.135Z,18.22
2019-03-30T09:02:10.375Z,18.20
2019-03-30T09:04:41.613Z,18.76
2019-03-30T09:07:12.752Z,19.18
2019-03-30T09:09:45.056Z,19.39
2019-03-30T09:12:16.346Z,18.99
2019-03-30T09:14:47.634Z,19.22
2019-03-30T09:17:18.939Z,19.37
2019-03-30T09:19:50.281Z,19.85
2019-03-30T09:22:21.495Z,19.67
2019-03-30T09:24:52.721Z,19.45
2019-03-30T09:27:24.013Z,20.51
2019-03-30T09:29:55.329Z,20.78
2019-03-30T09:32:26.478Z,21.04
2019-03-30T09:34:57.792Z,21.06
2019-03-30T09:37:28.986Z,21.47
2019-03-30T09:40:00.161Z,21.69
2019-03-30T09:42:31.636Z,21.76
2019-03-30T09:45:02.921Z,21.02
2019-03-30T09:47:34.141Z,20.99
2019-03-30T09:50:06.217Z,21.74
2019-03-30T09:52:37.446Z,22.32
2019-03-30T09:55:09.326Z,21.93
2019-03-30T09:57:40.570Z,22.68
2019-03-30T10:00:12.511Z,23.15
2019-03-30T10:02:43.652Z,23.58
2019-03-30T10:05:15.001Z,23.04
2019-03-30T10:07:46.323Z,23.13
2019-03-30T10:10:17.587Z,23.73
2019-03-30T10:12:48.849Z,24.72
2019-03-30T10:15:20.176Z,25.11
2019-03-30T10:17:51.489Z,25.59
2019-03-30T10:20:22.756Z,23.58
2019-03-30T10:22:54.059Z,24.27
2019-03-30T10:25:25.266Z,25.26
2019-03-30T10:27:56.508Z,25.24
2019-03-30T10:30:27.781Z,26.06
2019-03-30T10:32:59.033Z,25.94
2019-03-30T10:35:30.282Z,26.59
2019-03-30T10:38:01.540Z,25.80
2019-03-30T10:40:32.749Z,26.58
2019-03-30T10:43:04.005Z,27.36
2019-03-30T10:45:35.319Z,27.21
2019-03-30T10:48:06.581Z,27.47
2019-03-30T10:50:37.887Z,28.03
2019-03-30T10:53:09.176Z,28.41
2019-03-30T10:55:40.369Z,28.30
2019-03-30T10:58:11.519Z,28.33
2019-03-30T11:00:43.465Z,26.83
2019-03-30T11:03:14.735Z,26.16
2019-03-30T11:05:45.974Z,25.84
2019-03-30T11:08:17.210Z,27.02
2019-03-30T11:10:48.378Z,27.46
2019-03-30T11:13:19.645Z,28.22
2019-03-30T11:15:50.981Z,28.64
2019-03-30T11:18:22.262Z,28.32
2019-03-30T11:20:53.504Z,29.07
2019-03-30T11:23:24.801Z,29.51
2019-03-30T11:25:55.998Z,28.58
2019-03-30T11:28:27.298Z,28.87
2019-03-30T11:30:58.579Z,28.62
2019-03-30T11:33:29.769Z,28.48
2019-03-30T11:36:00.978Z,28.38
2019-03-30T11:38:32.190Z,28.86
2019-03-30T11:41:03.851Z,29.67
2019-03-30T11:43:35.119Z,30.31
2019-03-30T11:46:06.326Z,29.37
2019-03-30T11:48:37.808Z,30.28
2019-03-30T11:51:09.241Z,29.64
2019-03-30T11:53:40.463Z,29.46
2019-03-30T11:56:11.834Z,29.36
2019-03-30T11:58:43.133Z,29.60
2019-03-30T12:01:14.581Z,29.34
2019-03-30T12:03:45.823Z,28.87
2019-03-30T12:06:17.041Z,29.44
2019-03-30T12:08:48.292Z,29.85
2019-03-30T12:11:19.538Z,29.63
2019-03-30T12:13:50.635Z,29.61
2019-03-30T12:16:21.923Z,30.52
2019-03-30T12:18:53.194Z,28.97
2019-03-30T12:21:25.978Z,28.23
2019-03-30T12:23:57.126Z,28.76
2019-03-30T12:26:28.374Z,28.47
2019-03-30T12:29:00.096Z,29.27
2019-03-30T12:31:31.374Z,28.23
2019-03-30T12:34:03.418Z,29.26
2019-03-30T12:36:34.835Z,29.54
2019-03-30T12:39:08.247Z,29.98
2019-03-30T12:41:39.459Z,31.48
2019-03-30T12:44:10.844Z,31.88
2019-03-30T12:46:42.693Z,32.34
2019-03-30T12:49:14.035Z,32.18
2019-03-30T12:51:45.420Z,32.70
2019-03-30T12:54:16.749Z,33.51
2019-03-30T12:56:47.998Z,33.41
2019-03-30T12:59:21.534Z,33.52
2019-03-30T13:01:52.825Z,33.21
2019-03-30T13:04:24.089Z,32.05
2019-03-30T13:06:55.317Z,33.02
2019-03-30T13:09:26.645Z,33.26
2019-03-30T13:11:57.753Z,33.55
2019-03-30T13:14:29.128Z,31.58
2019-03-30T13:17:00.395Z,30.67
2019-03-30T13:19:31.641Z,30.84
2019-03-30T13:22:02.837Z,29.20
2019-03-30T13:24:34.118Z,28.51
2019-03-30T13:27:05.450Z,28.66
2019-03-30T13:29:36.609Z,28.28
2019-03-30T13:32:07.914Z,27.67
2019-03-30T13:34:39.198Z,27.30
2019-03-30T13:37:18.146Z,25.90
2019-03-30T13:39:49.664Z,25.39
2019-03-30T13:42:20.912Z,24.96
2019-03-30T13:44:52.021Z,24.63
2019-03-30T13:47:23.321Z,24.64
2019-03-30T13:49:54.648Z,24.46
2019-03-30T13:52:25.875Z,24.01
2019-03-30T13:54:57.164Z,23.55
2019-03-30T13:57:28.499Z,23.19
2019-03-30T13:59:59.765Z,23.10
2019-03-30T14:02:31.021Z,22.87
2019-03-30T14:05:02.288Z,22.79
2019-03-30T14:07:33.632Z,22.54
2019-03-30T14:10:05.408Z,22.43
2019-03-30T14:12:36.630Z,22.50
2019-03-30T14:15:09.537Z,22.58
2019-03-30T14:17:40.960Z,22.17
2019-03-30T14:20:12.245Z,22.18
2019-03-30T14:22:43.507Z,22.26
2019-03-30T14:25:15.747Z,22.66
2019-03-30T14:30:17.551Z,23.51
2019-03-30T14:32:48.804Z,24.00
2019-03-30T14:35:20.132Z,24.38
2019-03-30T14:37:51.324Z,24.35
2019-03-30T14:40:22.603Z,24.65
2019-03-30T14:42:53.835Z,24.34
2019-03-30T14:45:25.079Z,24.59
2019-03-30T14:47:58.073Z,25.18
2019-03-30T14:50:29.518Z,25.97
2019-03-30T14:53:00.778Z,26.78
2019-03-30T14:55:31.963Z,26.83
2019-03-30T14:58:03.319Z,26.86
2019-03-30T15:00:34.718Z,26.69
2019-03-30T15:03:06.267Z,26.24
2019-03-30T15:05:37.544Z,25.41
2019-03-30T15:08:08.815Z,24.72
2019-03-30T15:10:40.113Z,23.63
2019-03-30T15:13:11.416Z,22.30
2019-03-30T15:15:42.688Z,21.55
2019-03-30T15:18:13.962Z,20.96
2019-03-30T15:20:45.201Z,20.37
2019-03-30T15:23:19.619Z,20.01
2019-03-30T15:25:50.850Z,19.67
2019-03-30T15:28:22.096Z,19.14
2019-03-30T15:30:53.389Z,19.15
2019-03-30T15:33:24.792Z,19.04
2019-03-30T15:35:56.204Z,18.84
2019-03-30T15:38:27.515Z,18.79
2019-03-30T15:40:58.899Z,18.79
2019-03-30T15:43:38.148Z,18.80
2019-03-30T15:46:03.153Z,18.65
2019-03-30T15:48:34.578Z,18.66
2019-03-30T15:51:05.928Z,18.55
2019-03-30T15:53:37.318Z,18.50
2019-03-30T15:56:08.657Z,18.52
2019-03-30T15:58:39.938Z,18.43
2019-03-30T16:01:11.266Z,18.48
2019-03-30T16:03:42.731Z,18.49
2019-03-30T16:06:13.952Z,18.62
2019-03-30T16:08:45.264Z,18.60
2019-03-30T16:11:16.502Z,18.40
2019-03-30T16:13:47.912Z,18.15
2019-03-30T16:16:22.148Z,18.07
2019-03-30T16:18:53.411Z,17.98
2019-03-30T16:21:24.665Z,17.90
2019-03-30T16:23:55.899Z,17.79
2019-03-30T16:26:41.004Z,17.68
2019-03-30T16:29:00.098Z,17.70
2019-03-30T16:31:31.376Z,17.66
2019-03-30T16:34:02.586Z,17.66
2019-03-30T16:36:33.838Z,17.60
2019-03-30T16:39:06.328Z,17.55
2019-03-30T16:41:37.591Z,17.46
2019-03-30T16:44:08.954Z,17.33
2019-03-30T16:46:40.235Z,17.29
2019-03-30T16:49:11.485Z,17.10
2019-03-30T16:51:42.740Z,16.81
2019-03-30T16:54:14.109Z,16.69
2019-03-30T16:56:45.345Z,16.53
2019-03-30T16:59:16.902Z,16.44
2019-03-30T17:01:48.123Z,16.36
2019-03-30T17:04:19.315Z,16.30
2019-03-30T17:06:50.521Z,16.31
2019-03-30T17:09:21.808Z,16.15
2019-03-30T17:11:53.220Z,15.99
2019-03-30T17:14:24.493Z,15.90
2019-03-30T17:16:55.741Z,15.82
2019-03-30T17:19:28.348Z,15.77
2019-03-30T17:21:59.680Z,15.67
2019-03-30T17:24:30.956Z,15.60
2019-03-30T17:27:02.196Z,15.55
2019-03-30T17:29:33.514Z,15.44
2019-03-30T17:32:04.734Z,15.42
2019-03-30T17:34:36.183Z,15.23
2019-03-30T17:37:08.772Z,15.08
2019-03-30T17:39:40.071Z,14.82
2019-03-30T17:42:11.364Z,14.62
2019-03-30T17:44:42.653Z,14.40
2019-03-30T17:47:13.918Z,14.16
2019-03-30T17:49:45.388Z,14.01
2019-03-30T17:52:16.559Z,13.84
2019-03-30T17:54:47.816Z,13.78
2019-03-30T17:57:19.188Z,13.63
2019-03-30T17:59:50.581Z,13.45
2019-03-30T18:02:23.240Z,13.35
2019-03-30T18:04:54.703Z,13.19
2019-03-30T18:07:26.013Z,13.02
2019-03-30T18:09:57.320Z,12.92
2019-03-30T18:12:28.493Z,12.66
2019-03-30T18:14:59.959Z,12.55
2019-03-30T18:17:31.260Z,12.45
2019-03-30T18:20:02.505Z,12.31
2019-03-30T18:22:33.691Z,12.24
2019-03-30T18:25:05.267Z,12.16
2019-03-30T18:27:36.553Z,12.10
2019-03-30T18:30:09.034Z,12.01
2019-03-30T18:32:40.357Z,11.94
2019-03-30T18:35:11.985Z,11.90
2019-03-30T18:37:43.662Z,11.74
2019-03-30T18:40:28.411Z,11.82
2019-03-30T18:43:00.692Z,11.84
2019-03-30T18:45:32.064Z,11.90
2019-03-30T18:48:17.464Z,11.93
2019-03-30T18:50:49.159Z,11.72
2019-03-30T18:53:20.533Z,11.70
2019-03-30T18:55:51.804Z,11.72
2019-03-30T18:58:23.090Z,11.79
2019-03-30T19:00:54.230Z,11.77
2019-03-30T19:03:25.477Z,11.68
2019-03-30T19:05:56.703Z,11.57
2019-03-30T19:08:28.062Z,11.54
2019-03-30T19:10:59.302Z,11.69
2019-03-30T19:13:30.505Z,11.85
2019-03-30T19:16:01.865Z,11.86
2019-03-30T19:18:33.124Z,11.90
2019-03-30T19:21:04.468Z,11.92
2019-03-30T19:23:35.641Z,11.90
2019-03-30T19:26:06.935Z,11.84
2019-03-30T19:28:38.129Z,11.75
2019-03-30T19:31:09.374Z,11.71
2019-03-30T19:33:40.585Z,11.67
2019-03-30T19:36:11.885Z,11.63
2019-03-30T19:38:43.212Z,11.60
2019-03-30T19:41:14.446Z,11.60
2019-03-30T19:43:45.673Z,11.55
2019-03-30T19:46:17.004Z,11.54
2019-03-30T19:48:48.165Z,11.58
2019-03-30T19:51:19.517Z,11.55
2019-03-30T19:53:50.712Z,11.52
2019-03-30T19:56:21.928Z,11.45
2019-03-30T19:58:54.059Z,11.39
2019-03-30T20:01:25.280Z,11.30
2019-03-30T20:03:56.567Z,11.25
2019-03-30T20:06:27.833Z,11.22
2019-03-30T20:08:59.295Z,11.24
2019-03-30T20:11:30.656Z,11.23
2019-03-30T20:14:01.890Z,11.18
2019-03-30T20:16:33.199Z,11.15
2019-03-30T20:19:11.949Z,11.09
2019-03-30T20:21:37.524Z,11.09
2019-03-30T20:24:08.796Z,11.14
2019-03-30T20:26:40.084Z,11.11
2019-03-30T20:29:24.668Z,11.10
2019-03-30T20:31:44.339Z,11.02
2019-03-30T20:34:15.546Z,10.88
2019-03-30T20:36:47.861Z,10.80
2019-03-30T20:39:19.287Z,10.70
2019-03-30T20:41:50.539Z,10.60
2019-03-30T20:44:21.743Z,10.49
2019-03-30T20:46:52.914Z,10.44
2019-03-30T20:49:24.254Z,10.42
2019-03-30T20:51:55.537Z,10.44
2019-03-30T20:54:26.906Z,10.38
2019-03-30T20:56:58.205Z,10.36
2019-03-30T20:59:39.820Z,10.30
2019-03-30T21:02:02.566Z,10.24
2019-03-30T21:04:34.267Z,10.15
2019-03-30T21:07:05.591Z,10.09
2019-03-30T21:09:36.903Z,9.98
2019-03-30T21:12:08.189Z,9.91
2019-03-30T21:14:39.625Z,9.86
2019-03-30T21:17:12.289Z,9.83
2019-03-30T21:19:43.447Z,9.79
2019-03-30T21:22:14.815Z,9.76
2019-03-30T21:24:46.043Z,9.70
2019-03-30T21:27:17.250Z,9.62
2019-03-30T21:29:54.402Z,9.52
2019-03-30T21:32:22.755Z,9.46
2019-03-30T21:34:53.942Z,9.43
2019-03-30T21:37:25.412Z,9.38
2019-03-30T21:39:56.678Z,9.33
2019-03-30T21:42:27.936Z,9.25
2019-03-30T21:44:59.156Z,9.25
2019-03-30T21:47:49.163Z,9.23
2019-03-30T21:50:20.391Z,9.22
2019-03-30T21:52:51.713Z,9.10
2019-03-30T21:55:23.013Z,9.04
2019-03-30T21:57:54.330Z,8.98
2019-03-30T22:00:37.130Z,8.89
2019-03-30T22:03:08.706Z,8.84
2019-03-30T22:05:40.058Z,8.82
2019-03-30T22:08:11.329Z,8.83
2019-03-30T22:10:42.584Z,8.77
2019-03-30T22:13:13.867Z,8.74
2019-03-30T22:15:45.113Z,8.70
2019-03-30T22:18:16.354Z,8.68
2019-03-30T22:20:47.500Z,8.62
2019-03-30T22:23:18.704Z,8.56
2019-03-30T22:25:49.879Z,8.57
2019-03-30T22:28:22.696Z,8.68
2019-03-30T22:30:53.972Z,8.65
2019-03-30T22:33:25.395Z,8.57
2019-03-30T22:35:56.764Z,8.50
2019-03-30T22:38:28.011Z,8.40
2019-03-30T22:40:59.282Z,8.36
2019-03-30T22:43:30.671Z,8.34
2019-03-30T22:46:01.903Z,8.28
2019-03-30T22:48:33.104Z,8.18
2019-03-30T22:51:04.411Z,8.12
2019-03-30T22:53:35.631Z,8.10
2019-03-30T22:56:06.721Z,8.05
2019-03-30T22:58:38.001Z,8.01
2019-03-30T23:01:11.964Z,7.98
2019-03-30T23:03:44.554Z,7.96
2019-03-30T23:06:15.879Z,7.87
2019-03-30T23:08:47.337Z,7.82
2019-03-30T23:11:18.511Z,7.73
2019-03-30T23:13:49.814Z,7.73
2019-03-30T23:16:21.064Z,7.82
2019-03-30T23:18:52.542Z,7.89
2019-03-30T23:21:23.881Z,7.82
2019-03-30T23:23:55.170Z,7.74
2019-03-30T23:26:26.430Z,7.66
2019-03-30T23:28:59.439Z,7.60
2019-03-30T23:31:30.620Z,7.55
2019-03-30T23:34:01.949Z,7.47
2019-03-30T23:36:33.235Z,7.44
2019-03-30T23:39:05.997Z,7.37
2019-03-30T23:41:37.367Z,7.36
2019-03-30T23:44:08.712Z,7.35
2019-03-30T23:46:40.205Z,7.30
2019-03-30T23:49:11.506Z,7.17
2019-03-30T23:51:42.742Z,6.85
2019-03-30T23:54:17.209Z,6.82
2019-03-30T23:56:48.447Z,6.87
2019-03-30T23:59:19.622Z,6.95
